sensor_id;sensor_type;location;lat;lon;timestamp;temperature;humidity
21559;DHT22;10940;48.890;8.240;2022-12-26T00:01:46;13.10;99.90
21559;DHT22;10940;48.890;8.240;2022-12-26T00:04:12;13.00;99.90
21559;DHT22;10940;48.890;8.240;2022-12-26T00:06:38;13.00;99.90
21559;DHT22;10940;48.890;8.240;2022-12-26T00:09:05;13.00;99.90
21559;DHT22;10940;48.890;8.240;2022-12-26T00:11:31;13.00;99.90
21559;DHT22;10940;48.890;8.240;2022-12-26T00:14:00;12.90;99.90
21559;DHT22;10940;48.890;8.240;2022-12-26T00:16:27;12.90;99.90
21559;DHT22;10940;48.890;8.240;2022-12-26T00:18:53;12.90;99.90
21559;DHT22;10940;48.890;8.240;2022-12-26T00:21:20;12.90;99.90
21559;DHT22;10940;48.890;8.240;2022-12-26T00:23:46;12.90;99.90
21559;DHT22;10940;48.890;8.240;2022-12-26T00:26:20;13.00;99.90
21559;DHT22;10940;48.890;8.240;2022-12-26T00:28:46;12.90;99.90
21559;DHT22;10940;48.890;8.240;2022-12-26T00:31:15;12.90;99.90
21559;DHT22;10940;48.890;8.240;2022-12-26T00:33:41;12.90;99.90
21559;DHT22;10940;48.890;8.240;2022-12-26T00:36:12;12.90;99.90
21559;DHT22;10940;48.890;8.240;2022-12-26T00:38:39;12.80;99.90
21559;DHT22;10940;48.890;8.240;2022-12-26T00:41:06;12.80;99.90
21559;DHT22;10940;48.890;8.240;2022-12-26T00:43:34;12.80;99.90
21559;DHT22;10940;48.890;8.240;2022-12-26T00:45:59;12.90;99.90
21559;DHT22;10940;48.890;8.240;2022-12-26T00:48:25;12.90;99.90
21559;DHT22;10940;48.890;8.240;2022-12-26T00:50:51;12.90;99.90
21559;DHT22;10940;48.890;8.240;2022-12-26T00:53:17;12.90;99.90
21559;DHT22;10940;48.890;8.240;2022-12-26T00:55:42;12.90;99.90
21559;DHT22;10940;48.890;8.240;2022-12-26T00:58:08;13.00;99.90
21559;DHT22;10940;48.890;8.240;2022-12-26T01:00:34;12.90;99.90
21559;DHT22;10940;48.890;8.240;2022-12-26T01:03:00;12.90;99.90
21559;DHT22;10940;48.890;8.240;2022-12-26T01:05:25;13.00;99.90
21559;DHT22;10940;48.890;8.240;2022-12-26T01:07:51;13.00;99.90
21559;DHT22;10940;48.890;8.240;2022-12-26T01:10:17;13.20;99.90
21559;DHT22;10940;48.890;8.240;2022-12-26T01:12:42;13.20;99.90
21559;DHT22;10940;48.890;8.240;2022-12-26T01:15:08;13.20;99.90
21559;DHT22;10940;48.890;8.240;2022-12-26T01:17:34;13.30;99.90
21559;DHT22;10940;48.890;8.240;2022-12-26T01:20:00;13.30;99.90
21559;DHT22;10940;48.890;8.240;2022-12-26T01:22:26;13.40;99.90
21559;DHT22;10940;48.890;8.240;2022-12-26T01:24:53;13.40;99.90
21559;DHT22;10940;48.890;8.240;2022-12-26T01:27:19;13.50;99.90
21559;DHT22;10940;48.890;8.240;2022-12-26T01:29:45;13.50;99.90
21559;DHT22;10940;48.890;8.240;2022-12-26T01:32:10;13.50;99.90
21559;DHT22;10940;48.890;8.240;2022-12-26T01:34:36;13.50;99.90
21559;DHT22;10940;48.890;8.240;2022-12-26T01:37:01;13.50;99.90
21559;DHT22;10940;48.890;8.240;2022-12-26T01:39:28;13.50;99.90
21559;DHT22;10940;48.890;8.240;2022-12-26T01:41:53;13.50;99.90
21559;DHT22;10940;48.890;8.240;2022-12-26T01:47:16;13.50;99.90
21559;DHT22;10940;48.890;8.240;2022-12-26T01:49:45;13.60;99.90
21559;DHT22;10940;48.890;8.240;2022-12-26T01:52:16;13.60;99.90
21559;DHT22;10940;48.890;8.240;2022-12-26T01:54:48;13.60;99.90
21559;DHT22;10940;48.890;8.240;2022-12-26T01:57:23;13.50;99.90
21559;DHT22;10940;48.890;8.240;2022-12-26T01:59:52;13.50;99.90
21559;DHT22;10940;48.890;8.240;2022-12-26T02:02:21;13.60;99.90
21559;DHT22;10940;48.890;8.240;2022-12-26T02:04:50;13.60;99.90
21559;DHT22;10940;48.890;8.240;2022-12-26T02:07:37;13.60;99.90
21559;DHT22;10940;48.890;8.240;2022-12-26T02:10:06;13.50;99.90
21559;DHT22;10940;48.890;8.240;2022-12-26T02:12:34;13.50;99.90
21559;DHT22;10940;48.890;8.240;2022-12-26T02:15:03;13.50;99.90
21559;DHT22;10940;48.890;8.240;2022-12-26T02:17:29;13.50;99.90
21559;DHT22;10940;48.890;8.240;2022-12-26T02:34:19;13.50;99.90
21559;DHT22;10940;48.890;8.240;2022-12-26T02:42:18;13.60;99.90
21559;DHT22;10940;48.890;8.240;2022-12-26T02:54:08;13.60;99.90
21559;DHT22;10940;48.890;8.240;2022-12-26T02:56:48;13.70;99.90
21559;DHT22;10940;48.890;8.240;2022-12-26T02:59:57;13.70;99.90
21559;DHT22;10940;48.890;8.240;2022-12-26T03:02:51;13.70;99.90
21559;DHT22;10940;48.890;8.240;2022-12-26T03:05:53;13.60;99.90
21559;DHT22;10940;48.890;8.240;2022-12-26T03:08:47;13.50;99.90
21559;DHT22;10940;48.890;8.240;2022-12-26T03:11:39;13.40;99.90
21559;DHT22;10940;48.890;8.240;2022-12-26T03:14:46;13.40;99.90
21559;DHT22;10940;48.890;8.240;2022-12-26T03:17:38;13.40;99.90
21559;DHT22;10940;48.890;8.240;2022-12-26T03:20:08;13.40;99.90
21559;DHT22;10940;48.890;8.240;2022-12-26T03:22:45;13.40;99.90
21559;DHT22;10940;48.890;8.240;2022-12-26T03:25:18;13.40;99.90
21559;DHT22;10940;48.890;8.240;2022-12-26T03:28:06;13.40;99.90
21559;DHT22;10940;48.890;8.240;2022-12-26T03:30:32;13.40;99.90
21559;DHT22;10940;48.890;8.240;2022-12-26T03:36:04;13.40;99.90
21559;DHT22;10940;48.890;8.240;2022-12-26T03:41:40;13.40;99.90
21559;DHT22;10940;48.890;8.240;2022-12-26T03:44:31;13.40;99.90
21559;DHT22;10940;48.890;8.240;2022-12-26T03:47:28;13.40;99.90
21559;DHT22;10940;48.890;8.240;2022-12-26T03:50:33;13.50;99.90
21559;DHT22;10940;48.890;8.240;2022-12-26T03:53:31;13.40;99.90
21559;DHT22;10940;48.890;8.240;2022-12-26T03:56:31;13.50;99.90
21559;DHT22;10940;48.890;8.240;2022-12-26T03:59:25;13.50;99.90
21559;DHT22;10940;48.890;8.240;2022-12-26T04:02:14;13.50;99.90
21559;DHT22;10940;48.890;8.240;2022-12-26T04:05:02;13.50;99.90
21559;DHT22;10940;48.890;8.240;2022-12-26T04:07:55;13.50;99.90
21559;DHT22;10940;48.890;8.240;2022-12-26T04:10:44;13.50;99.90
21559;DHT22;10940;48.890;8.240;2022-12-26T04:13:44;13.60;99.90
21559;DHT22;10940;48.890;8.240;2022-12-26T04:16:33;13.60;99.90
21559;DHT22;10940;48.890;8.240;2022-12-26T04:19:52;13.60;99.90
21559;DHT22;10940;48.890;8.240;2022-12-26T04:22:47;13.70;99.90
21559;DHT22;10940;48.890;8.240;2022-12-26T04:25:37;13.80;99.90
21559;DHT22;10940;48.890;8.240;2022-12-26T04:28:24;13.80;99.90
21559;DHT22;10940;48.890;8.240;2022-12-26T04:31:29;13.80;99.90
21559;DHT22;10940;48.890;8.240;2022-12-26T04:34:24;13.80;99.90
21559;DHT22;10940;48.890;8.240;2022-12-26T04:37:18;13.90;99.90
21559;DHT22;10940;48.890;8.240;2022-12-26T04:40:08;13.90;99.90
21559;DHT22;10940;48.890;8.240;2022-12-26T04:42:53;14.00;99.90
21559;DHT22;10940;48.890;8.240;2022-12-26T04:45:38;14.00;99.90
21559;DHT22;10940;48.890;8.240;2022-12-26T04:48:05;14.10;99.90
21559;DHT22;10940;48.890;8.240;2022-12-26T04:50:50;14.10;99.90
21559;DHT22;10940;48.890;8.240;2022-12-26T04:53:16;14.00;99.90
21559;DHT22;10940;48.890;8.240;2022-12-26T04:55:42;14.00;99.90
21559;DHT22;10940;48.890;8.240;2022-12-26T04:58:08;13.90;99.90
21559;DHT22;10940;48.890;8.240;2022-12-26T05:00:33;13.80;99.90
21559;DHT22;10940;48.890;8.240;2022-12-26T05:02:59;13.60;99.90
21559;DHT22;10940;48.890;8.240;2022-12-26T05:05:45;13.50;99.90
21559;DHT22;10940;48.890;8.240;2022-12-26T05:08:41;13.20;99.90
21559;DHT22;10940;48.890;8.240;2022-12-26T05:11:27;12.90;99.90
21559;DHT22;10940;48.890;8.240;2022-12-26T05:13:54;12.70;99.90
21559;DHT22;10940;48.890;8.240;2022-12-26T05:16:20;12.60;99.90
21559;DHT22;10940;48.890;8.240;2022-12-26T05:19:05;12.40;99.90
21559;DHT22;10940;48.890;8.240;2022-12-26T05:21:50;12.40;99.90
21559;DHT22;10940;48.890;8.240;2022-12-26T05:24:37;12.30;99.90
21559;DHT22;10940;48.890;8.240;2022-12-26T05:27:23;12.30;99.90
21559;DHT22;10940;48.890;8.240;2022-12-26T05:30:08;12.30;99.90
21559;DHT22;10940;48.890;8.240;2022-12-26T05:32:33;12.20;99.90
21559;DHT22;10940;48.890;8.240;2022-12-26T05:35:18;12.20;99.90
21559;DHT22;10940;48.890;8.240;2022-12-26T05:37:44;12.20;99.90
21559;DHT22;10940;48.890;8.240;2022-12-26T05:40:10;12.30;99.90
21559;DHT22;10940;48.890;8.240;2022-12-26T05:42:36;12.30;99.90
21559;DHT22;10940;48.890;8.240;2022-12-26T05:45:01;12.30;99.90
21559;DHT22;10940;48.890;8.240;2022-12-26T05:47:27;12.30;99.90
21559;DHT22;10940;48.890;8.240;2022-12-26T05:49:53;12.20;99.90
21559;DHT22;10940;48.890;8.240;2022-12-26T05:52:18;12.20;99.90
21559;DHT22;10940;48.890;8.240;2022-12-26T05:54:44;12.30;99.90
21559;DHT22;10940;48.890;8.240;2022-12-26T05:57:09;12.30;99.90
21559;DHT22;10940;48.890;8.240;2022-12-26T05:59:35;12.30;99.90
21559;DHT22;10940;48.890;8.240;2022-12-26T06:02:01;12.30;99.90
21559;DHT22;10940;48.890;8.240;2022-12-26T06:04:26;12.30;99.90
21559;DHT22;10940;48.890;8.240;2022-12-26T06:06:54;12.30;99.90
21559;DHT22;10940;48.890;8.240;2022-12-26T06:09:22;12.30;99.90
21559;DHT22;10940;48.890;8.240;2022-12-26T06:11:48;12.30;99.90
21559;DHT22;10940;48.890;8.240;2022-12-26T06:14:14;12.30;99.90
21559;DHT22;10940;48.890;8.240;2022-12-26T06:16:39;12.30;99.90
21559;DHT22;10940;48.890;8.240;2022-12-26T06:19:06;12.40;99.90
21559;DHT22;10940;48.890;8.240;2022-12-26T06:21:31;12.40;99.90
21559;DHT22;10940;48.890;8.240;2022-12-26T06:23:57;12.40;99.90
21559;DHT22;10940;48.890;8.240;2022-12-26T06:26:23;12.40;99.90
21559;DHT22;10940;48.890;8.240;2022-12-26T06:28:48;12.40;99.90
21559;DHT22;10940;48.890;8.240;2022-12-26T06:31:20;12.30;99.90
21559;DHT22;10940;48.890;8.240;2022-12-26T06:33:50;12.20;99.90
21559;DHT22;10940;48.890;8.240;2022-12-26T06:36:18;12.20;99.90
21559;DHT22;10940;48.890;8.240;2022-12-26T06:38:44;12.10;99.90
21559;DHT22;10940;48.890;8.240;2022-12-26T06:41:12;12.00;99.90
21559;DHT22;10940;48.890;8.240;2022-12-26T06:43:38;11.90;99.90
21559;DHT22;10940;48.890;8.240;2022-12-26T06:46:05;11.80;99.90
21559;DHT22;10940;48.890;8.240;2022-12-26T06:48:32;11.70;99.90
21559;DHT22;10940;48.890;8.240;2022-12-26T06:51:03;11.60;99.90
21559;DHT22;10940;48.890;8.240;2022-12-26T06:53:29;11.60;99.90
21559;DHT22;10940;48.890;8.240;2022-12-26T06:56:14;11.50;99.90
21559;DHT22;10940;48.890;8.240;2022-12-26T06:58:40;11.50;99.90
21559;DHT22;10940;48.890;8.240;2022-12-26T07:01:07;11.50;99.90
21559;DHT22;10940;48.890;8.240;2022-12-26T07:03:34;11.50;99.90
21559;DHT22;10940;48.890;8.240;2022-12-26T07:06:10;11.40;99.90
21559;DHT22;10940;48.890;8.240;2022-12-26T07:08:37;11.40;99.90
21559;DHT22;10940;48.890;8.240;2022-12-26T07:11:02;11.40;99.90
21559;DHT22;10940;48.890;8.240;2022-12-26T07:13:28;11.30;99.90
21559;DHT22;10940;48.890;8.240;2022-12-26T07:15:53;11.30;99.90
21559;DHT22;10940;48.890;8.240;2022-12-26T07:18:19;11.30;99.90
21559;DHT22;10940;48.890;8.240;2022-12-26T07:20:45;11.20;99.90
21559;DHT22;10940;48.890;8.240;2022-12-26T07:23:10;11.20;99.90
21559;DHT22;10940;48.890;8.240;2022-12-26T07:25:36;11.30;99.90
21559;DHT22;10940;48.890;8.240;2022-12-26T07:28:02;11.20;99.90
21559;DHT22;10940;48.890;8.240;2022-12-26T07:30:28;11.20;99.90
21559;DHT22;10940;48.890;8.240;2022-12-26T07:32:54;11.20;99.90
21559;DHT22;10940;48.890;8.240;2022-12-26T07:35:19;11.20;99.90
21559;DHT22;10940;48.890;8.240;2022-12-26T07:37:45;11.30;99.90
21559;DHT22;10940;48.890;8.240;2022-12-26T07:40:11;11.30;99.90
21559;DHT22;10940;48.890;8.240;2022-12-26T07:42:36;11.30;99.90
21559;DHT22;10940;48.890;8.240;2022-12-26T07:45:02;11.30;99.90
21559;DHT22;10940;48.890;8.240;2022-12-26T07:47:28;11.30;99.90
21559;DHT22;10940;48.890;8.240;2022-12-26T07:49:53;11.20;99.90
21559;DHT22;10940;48.890;8.240;2022-12-26T07:52:19;11.20;99.90
21559;DHT22;10940;48.890;8.240;2022-12-26T07:54:45;11.10;99.90
21559;DHT22;10940;48.890;8.240;2022-12-26T07:57:11;11.10;99.90
21559;DHT22;10940;48.890;8.240;2022-12-26T07:59:36;11.00;99.90
21559;DHT22;10940;48.890;8.240;2022-12-26T08:02:02;11.00;99.90
21559;DHT22;10940;48.890;8.240;2022-12-26T08:04:30;11.00;99.90
21559;DHT22;10940;48.890;8.240;2022-12-26T08:06:56;11.00;99.90
21559;DHT22;10940;48.890;8.240;2022-12-26T08:09:22;10.90;99.90
21559;DHT22;10940;48.890;8.240;2022-12-26T08:11:48;11.00;99.90
21559;DHT22;10940;48.890;8.240;2022-12-26T08:14:14;10.90;99.90
21559;DHT22;10940;48.890;8.240;2022-12-26T08:16:43;10.90;99.90
21559;DHT22;10940;48.890;8.240;2022-12-26T08:19:09;10.80;99.90
21559;DHT22;10940;48.890;8.240;2022-12-26T08:21:35;10.90;99.90
21559;DHT22;10940;48.890;8.240;2022-12-26T08:24:00;10.90;99.90
21559;DHT22;10940;48.890;8.240;2022-12-26T08:26:26;10.90;99.90
21559;DHT22;10940;48.890;8.240;2022-12-26T08:28:54;10.90;99.90
21559;DHT22;10940;48.890;8.240;2022-12-26T08:31:19;11.00;99.90
21559;DHT22;10940;48.890;8.240;2022-12-26T08:33:45;10.90;99.90
21559;DHT22;10940;48.890;8.240;2022-12-26T08:36:12;11.00;99.90
21559;DHT22;10940;48.890;8.240;2022-12-26T08:38:39;11.00;99.90
21559;DHT22;10940;48.890;8.240;2022-12-26T08:41:05;11.00;99.90
21559;DHT22;10940;48.890;8.240;2022-12-26T08:43:31;11.00;99.90
21559;DHT22;10940;48.890;8.240;2022-12-26T08:46:06;11.00;99.90
21559;DHT22;10940;48.890;8.240;2022-12-26T08:48:32;11.00;99.90
21559;DHT22;10940;48.890;8.240;2022-12-26T08:51:01;11.10;99.90
21559;DHT22;10940;48.890;8.240;2022-12-26T08:53:28;11.00;99.90
21559;DHT22;10940;48.890;8.240;2022-12-26T08:55:54;11.00;99.90
21559;DHT22;10940;48.890;8.240;2022-12-26T08:58:20;11.00;99.90
21559;DHT22;10940;48.890;8.240;2022-12-26T09:00:46;10.90;99.90
21559;DHT22;10940;48.890;8.240;2022-12-26T09:03:13;11.00;99.90
21559;DHT22;10940;48.890;8.240;2022-12-26T09:05:38;11.00;99.90
21559;DHT22;10940;48.890;8.240;2022-12-26T09:08:04;11.00;99.90
21559;DHT22;10940;48.890;8.240;2022-12-26T09:10:30;11.00;99.90
21559;DHT22;10940;48.890;8.240;2022-12-26T09:12:55;11.00;99.90
21559;DHT22;10940;48.890;8.240;2022-12-26T09:15:21;11.00;99.90
21559;DHT22;10940;48.890;8.240;2022-12-26T09:17:46;11.00;99.90
21559;DHT22;10940;48.890;8.240;2022-12-26T09:20:12;11.00;99.90
21559;DHT22;10940;48.890;8.240;2022-12-26T09:22:37;11.00;99.90
21559;DHT22;10940;48.890;8.240;2022-12-26T09:25:20;11.00;99.90
21559;DHT22;10940;48.890;8.240;2022-12-26T09:27:47;11.00;99.90
21559;DHT22;10940;48.890;8.240;2022-12-26T09:30:13;10.90;99.90
21559;DHT22;10940;48.890;8.240;2022-12-26T09:32:39;10.90;99.90
21559;DHT22;10940;48.890;8.240;2022-12-26T09:35:06;11.00;99.90
21559;DHT22;10940;48.890;8.240;2022-12-26T09:37:31;11.00;99.90
21559;DHT22;10940;48.890;8.240;2022-12-26T09:39:57;11.00;99.90
21559;DHT22;10940;48.890;8.240;2022-12-26T09:42:49;11.00;99.90
21559;DHT22;10940;48.890;8.240;2022-12-26T09:48:26;10.90;99.90
21559;DHT22;10940;48.890;8.240;2022-12-26T09:50:54;10.90;99.90
21559;DHT22;10940;48.890;8.240;2022-12-26T09:53:25;10.90;99.90
21559;DHT22;10940;48.890;8.240;2022-12-26T09:56:19;10.90;99.90
21559;DHT22;10940;48.890;8.240;2022-12-26T09:58:52;10.90;99.90
21559;DHT22;10940;48.890;8.240;2022-12-26T10:01:26;10.80;99.90
21559;DHT22;10940;48.890;8.240;2022-12-26T10:03:54;10.80;99.90
21559;DHT22;10940;48.890;8.240;2022-12-26T10:06:23;10.90;99.90
21559;DHT22;10940;48.890;8.240;2022-12-26T10:20:11;10.80;99.90
21559;DHT22;10940;48.890;8.240;2022-12-26T10:25:20;10.90;99.90
21559;DHT22;10940;48.890;8.240;2022-12-26T10:27:49;10.80;99.90
21559;DHT22;10940;48.890;8.240;2022-12-26T10:30:30;10.80;99.90
21559;DHT22;10940;48.890;8.240;2022-12-26T10:33:01;10.80;99.90
21559;DHT22;10940;48.890;8.240;2022-12-26T10:35:41;10.90;99.90
21559;DHT22;10940;48.890;8.240;2022-12-26T10:40:48;10.90;99.90
21559;DHT22;10940;48.890;8.240;2022-12-26T10:43:34;10.90;99.90
21559;DHT22;10940;48.890;8.240;2022-12-26T10:48:45;10.90;99.90
21559;DHT22;10940;48.890;8.240;2022-12-26T10:51:12;10.90;99.90
21559;DHT22;10940;48.890;8.240;2022-12-26T10:53:45;11.00;99.90
21559;DHT22;10940;48.890;8.240;2022-12-26T10:56:11;11.00;99.90
21559;DHT22;10940;48.890;8.240;2022-12-26T10:58:37;11.00;99.90
21559;DHT22;10940;48.890;8.240;2022-12-26T11:01:40;11.00;99.90
21559;DHT22;10940;48.890;8.240;2022-12-26T11:04:20;11.10;99.90
21559;DHT22;10940;48.890;8.240;2022-12-26T11:06:48;11.10;99.90
21559;DHT22;10940;48.890;8.240;2022-12-26T11:09:37;11.10;99.90
21559;DHT22;10940;48.890;8.240;2022-12-26T11:12:04;11.10;99.90
21559;DHT22;10940;48.890;8.240;2022-12-26T11:17:22;11.10;99.90
21559;DHT22;10940;48.890;8.240;2022-12-26T11:19:48;11.10;99.90
21559;DHT22;10940;48.890;8.240;2022-12-26T11:22:26;11.10;99.90
21559;DHT22;10940;48.890;8.240;2022-12-26T11:27:41;11.20;99.90
21559;DHT22;10940;48.890;8.240;2022-12-26T11:30:20;11.30;99.90
21559;DHT22;10940;48.890;8.240;2022-12-26T11:33:01;11.30;99.90
21559;DHT22;10940;48.890;8.240;2022-12-26T11:35:27;11.30;99.90
21559;DHT22;10940;48.890;8.240;2022-12-26T11:38:00;11.30;99.90
21559;DHT22;10940;48.890;8.240;2022-12-26T11:40:36;11.30;99.90
21559;DHT22;10940;48.890;8.240;2022-12-26T11:43:05;11.30;99.90
21559;DHT22;10940;48.890;8.240;2022-12-26T11:45:42;11.30;99.90
21559;DHT22;10940;48.890;8.240;2022-12-26T11:48:22;11.30;99.90
21559;DHT22;10940;48.890;8.240;2022-12-26T11:50:48;11.40;99.90
21559;DHT22;10940;48.890;8.240;2022-12-26T11:53:16;11.40;99.90
21559;DHT22;10940;48.890;8.240;2022-12-26T11:55:43;11.40;99.90
21559;DHT22;10940;48.890;8.240;2022-12-26T12:01:04;11.40;99.90
21559;DHT22;10940;48.890;8.240;2022-12-26T12:03:50;11.40;99.90
21559;DHT22;10940;48.890;8.240;2022-12-26T12:06:22;11.30;99.90
21559;DHT22;10940;48.890;8.240;2022-12-26T12:09:01;11.30;99.90
21559;DHT22;10940;48.890;8.240;2022-12-26T12:14:34;11.30;99.90
21559;DHT22;10940;48.890;8.240;2022-12-26T12:27:28;11.30;99.90
21559;DHT22;10940;48.890;8.240;2022-12-26T12:35:24;11.30;99.90
21559;DHT22;10940;48.890;8.240;2022-12-26T12:38:40;11.20;99.90
21559;DHT22;10940;48.890;8.240;2022-12-26T12:43:31;11.20;99.90
21559;DHT22;10940;48.890;8.240;2022-12-26T12:46:08;11.20;99.90
21559;DHT22;10940;48.890;8.240;2022-12-26T12:54:34;11.30;99.90
21559;DHT22;10940;48.890;8.240;2022-12-26T13:03:01;11.30;99.90
21559;DHT22;10940;48.890;8.240;2022-12-26T13:13:48;11.30;99.90
21559;DHT22;10940;48.890;8.240;2022-12-26T13:16:22;11.30;99.90
21559;DHT22;10940;48.890;8.240;2022-12-26T13:18:55;11.40;99.90
21559;DHT22;10940;48.890;8.240;2022-12-26T13:21:22;11.40;99.90
21559;DHT22;10940;48.890;8.240;2022-12-26T13:24:11;11.40;99.90
21559;DHT22;10940;48.890;8.240;2022-12-26T13:29:32;11.50;99.90
21559;DHT22;10940;48.890;8.240;2022-12-26T13:31:59;11.50;99.90
21559;DHT22;10940;48.890;8.240;2022-12-26T13:34:25;11.50;99.90
21559;DHT22;10940;48.890;8.240;2022-12-26T13:36:53;11.50;99.90
21559;DHT22;10940;48.890;8.240;2022-12-26T13:42:00;11.40;99.90
21559;DHT22;10940;48.890;8.240;2022-12-26T13:44:44;11.40;99.90
21559;DHT22;10940;48.890;8.240;2022-12-26T13:47:31;11.30;99.90
21559;DHT22;10940;48.890;8.240;2022-12-26T13:49:57;11.30;99.90
21559;DHT22;10940;48.890;8.240;2022-12-26T13:52:34;11.30;99.90
21559;DHT22;10940;48.890;8.240;2022-12-26T14:00:11;11.30;99.90
21559;DHT22;10940;48.890;8.240;2022-12-26T14:05:25;11.40;99.90
21559;DHT22;10940;48.890;8.240;2022-12-26T14:08:33;11.40;99.90
21559;DHT22;10940;48.890;8.240;2022-12-26T14:11:36;11.40;99.90
21559;DHT22;10940;48.890;8.240;2022-12-26T14:14:24;11.40;99.90
21559;DHT22;10940;48.890;8.240;2022-12-26T14:17:14;11.40;99.90
21559;DHT22;10940;48.890;8.240;2022-12-26T14:25:32;11.20;99.90
21559;DHT22;10940;48.890;8.240;2022-12-26T14:28:09;11.10;99.90
21559;DHT22;10940;48.890;8.240;2022-12-26T14:34:17;11.00;99.90
21559;DHT22;10940;48.890;8.240;2022-12-26T14:36:58;10.90;99.90
21559;DHT22;10940;48.890;8.240;2022-12-26T14:39:44;10.90;99.90
21559;DHT22;10940;48.890;8.240;2022-12-26T14:42:16;10.90;99.90
21559;DHT22;10940;48.890;8.240;2022-12-26T14:45:03;10.90;99.90
21559;DHT22;10940;48.890;8.240;2022-12-26T15:03:43;10.70;99.90
21559;DHT22;10940;48.890;8.240;2022-12-26T15:09:10;10.60;99.90
21559;DHT22;10940;48.890;8.240;2022-12-26T15:32:58;10.60;99.90
21559;DHT22;10940;48.890;8.240;2022-12-26T15:40:57;10.50;99.90
21559;DHT22;10940;48.890;8.240;2022-12-26T15:43:52;10.50;99.90
21559;DHT22;10940;48.890;8.240;2022-12-26T15:46:30;10.50;99.90
21559;DHT22;10940;48.890;8.240;2022-12-26T15:51:59;10.50;99.90
21559;DHT22;10940;48.890;8.240;2022-12-26T15:57:37;10.50;99.90
21559;DHT22;10940;48.890;8.240;2022-12-26T16:02:38;10.50;99.90
21559;DHT22;10940;48.890;8.240;2022-12-26T16:08:11;10.50;99.90
21559;DHT22;10940;48.890;8.240;2022-12-26T16:10:40;10.50;99.90
21559;DHT22;10940;48.890;8.240;2022-12-26T16:13:15;10.50;99.90
21559;DHT22;10940;48.890;8.240;2022-12-26T16:16:06;10.50;99.90
21559;DHT22;10940;48.890;8.240;2022-12-26T16:18:32;10.50;99.90
21559;DHT22;10940;48.890;8.240;2022-12-26T16:21:00;10.50;99.90
21559;DHT22;10940;48.890;8.240;2022-12-26T16:23:46;10.50;99.90
21559;DHT22;10940;48.890;8.240;2022-12-26T16:26:24;10.40;99.90
21559;DHT22;10940;48.890;8.240;2022-12-26T16:28:51;10.40;99.90
21559;DHT22;10940;48.890;8.240;2022-12-26T16:31:19;10.40;99.90
21559;DHT22;10940;48.890;8.240;2022-12-26T16:33:45;10.40;99.90
21559;DHT22;10940;48.890;8.240;2022-12-26T16:36:18;10.40;99.90
21559;DHT22;10940;48.890;8.240;2022-12-26T16:38:44;10.40;99.90
21559;DHT22;10940;48.890;8.240;2022-12-26T16:41:24;10.40;99.90
21559;DHT22;10940;48.890;8.240;2022-12-26T16:43:52;10.50;99.90
21559;DHT22;10940;48.890;8.240;2022-12-26T16:46:20;10.40;99.90
21559;DHT22;10940;48.890;8.240;2022-12-26T16:48:54;10.50;99.90
21559;DHT22;10940;48.890;8.240;2022-12-26T16:51:39;10.50;99.90
21559;DHT22;10940;48.890;8.240;2022-12-26T16:57:07;10.40;99.90
21559;DHT22;10940;48.890;8.240;2022-12-26T16:59:50;10.40;99.90
21559;DHT22;10940;48.890;8.240;2022-12-26T17:02:27;10.40;99.90
21559;DHT22;10940;48.890;8.240;2022-12-26T17:05:33;10.40;99.90
21559;DHT22;10940;48.890;8.240;2022-12-26T17:08:02;10.40;99.90
21559;DHT22;10940;48.890;8.240;2022-12-26T17:10:34;10.40;99.90
21559;DHT22;10940;48.890;8.240;2022-12-26T17:13:05;10.30;99.90
21559;DHT22;10940;48.890;8.240;2022-12-26T17:15:36;10.30;99.90
21559;DHT22;10940;48.890;8.240;2022-12-26T17:20:55;10.30;99.90
21559;DHT22;10940;48.890;8.240;2022-12-26T17:23:38;10.30;99.90
21559;DHT22;10940;48.890;8.240;2022-12-26T17:26:20;10.30;99.90
21559;DHT22;10940;48.890;8.240;2022-12-26T17:28:46;10.30;99.90
21559;DHT22;10940;48.890;8.240;2022-12-26T17:31:18;10.30;99.90
21559;DHT22;10940;48.890;8.240;2022-12-26T17:33:44;10.30;99.90
21559;DHT22;10940;48.890;8.240;2022-12-26T17:36:13;10.30;99.90
21559;DHT22;10940;48.890;8.240;2022-12-26T17:38:40;10.20;99.90
21559;DHT22;10940;48.890;8.240;2022-12-26T17:41:08;10.30;99.90
21559;DHT22;10940;48.890;8.240;2022-12-26T17:43:38;10.20;99.90
21559;DHT22;10940;48.890;8.240;2022-12-26T17:46:06;10.20;99.90
21559;DHT22;10940;48.890;8.240;2022-12-26T17:48:32;10.20;99.90
21559;DHT22;10940;48.890;8.240;2022-12-26T17:51:03;10.10;99.90
21559;DHT22;10940;48.890;8.240;2022-12-26T17:53:32;10.10;99.90
21559;DHT22;10940;48.890;8.240;2022-12-26T17:56:07;10.10;99.90
21559;DHT22;10940;48.890;8.240;2022-12-26T17:58:35;10.00;99.90
21559;DHT22;10940;48.890;8.240;2022-12-26T18:01:01;10.00;99.90
21559;DHT22;10940;48.890;8.240;2022-12-26T18:03:27;10.00;99.90
21559;DHT22;10940;48.890;8.240;2022-12-26T18:05:53;9.90;99.90
21559;DHT22;10940;48.890;8.240;2022-12-26T18:08:38;9.90;99.90
21559;DHT22;10940;48.890;8.240;2022-12-26T18:11:10;9.90;99.90
21559;DHT22;10940;48.890;8.240;2022-12-26T18:13:36;9.80;99.90
21559;DHT22;10940;48.890;8.240;2022-12-26T18:16:03;9.80;99.90
21559;DHT22;10940;48.890;8.240;2022-12-26T18:21:03;9.70;99.90
21559;DHT22;10940;48.890;8.240;2022-12-26T18:23:29;9.70;99.90
21559;DHT22;10940;48.890;8.240;2022-12-26T18:25:58;9.70;99.90
21559;DHT22;10940;48.890;8.240;2022-12-26T18:28:26;9.60;99.90
21559;DHT22;10940;48.890;8.240;2022-12-26T18:30:52;9.60;99.90
21559;DHT22;10940;48.890;8.240;2022-12-26T18:33:19;9.60;99.90
21559;DHT22;10940;48.890;8.240;2022-12-26T18:35:45;9.60;99.90
21559;DHT22;10940;48.890;8.240;2022-12-26T18:38:14;9.70;99.90
21559;DHT22;10940;48.890;8.240;2022-12-26T18:40:51;9.70;99.90
21559;DHT22;10940;48.890;8.240;2022-12-26T18:43:22;9.70;99.90
21559;DHT22;10940;48.890;8.240;2022-12-26T18:45:48;9.60;99.90
21559;DHT22;10940;48.890;8.240;2022-12-26T18:48:15;9.50;99.90
21559;DHT22;10940;48.890;8.240;2022-12-26T18:50:41;9.40;99.90
21559;DHT22;10940;48.890;8.240;2022-12-26T18:53:07;9.40;99.90
21559;DHT22;10940;48.890;8.240;2022-12-26T18:55:33;9.30;99.90
21559;DHT22;10940;48.890;8.240;2022-12-26T18:57:58;9.30;99.90
21559;DHT22;10940;48.890;8.240;2022-12-26T19:00:24;9.30;99.90
21559;DHT22;10940;48.890;8.240;2022-12-26T19:02:51;9.30;99.90
21559;DHT22;10940;48.890;8.240;2022-12-26T19:07:45;9.20;99.90
21559;DHT22;10940;48.890;8.240;2022-12-26T19:10:13;9.20;99.90
21559;DHT22;10940;48.890;8.240;2022-12-26T19:12:40;9.20;99.90
21559;DHT22;10940;48.890;8.240;2022-12-26T19:15:06;9.20;99.90
21559;DHT22;10940;48.890;8.240;2022-12-26T19:17:32;9.20;99.90
21559;DHT22;10940;48.890;8.240;2022-12-26T19:19:57;9.20;99.90
21559;DHT22;10940;48.890;8.240;2022-12-26T19:22:23;9.20;99.90
21559;DHT22;10940;48.890;8.240;2022-12-26T19:24:49;9.20;99.90
21559;DHT22;10940;48.890;8.240;2022-12-26T19:27:14;9.20;99.90